createdAt,value
2023-03-19T00:00:40.482Z,5.02
2023-03-19T00:04:05.135Z,4.91
2023-03-19T00:07:28.847Z,4.57
2023-03-19T00:10:52.966Z,4.61
2023-03-19T00:14:18.557Z,4.46
2023-03-19T00:17:43.469Z,4.48
2023-03-19T00:21:08.032Z,4.37
2023-03-19T00:24:33.252Z,4.58
2023-03-19T00:27:57.757Z,4.18
2023-03-19T00:31:23.485Z,4.09
2023-03-19T00:34:48.097Z,3.91
2023-03-19T00:38:14.216Z,4.22
2023-03-19T00:41:38.386Z,4.42
2023-03-19T00:45:03.470Z,4.64
2023-03-19T00:48:32.628Z,4.37
2023-03-19T00:51:58.027Z,4.22
2023-03-19T00:55:22.003Z,4.24
2023-03-19T00:58:46.410Z,4.17
2023-03-19T01:02:10.889Z,4.17
2023-03-19T01:09:01.937Z,3.97
2023-03-19T01:12:26.804Z,4.08
2023-03-19T01:15:54.249Z,4.08
2023-03-19T01:19:20.634Z,3.92
2023-03-19T01:22:46.955Z,3.94
2023-03-19T01:26:11.493Z,3.77
2023-03-19T01:29:35.823Z,3.85
2023-03-19T01:33:02.343Z,3.76
2023-03-19T01:36:26.938Z,3.75
2023-03-19T01:39:54.338Z,3.79
2023-03-19T01:43:20.126Z,3.71
2023-03-19T01:46:44.955Z,3.53
2023-03-19T01:50:13.468Z,3.31
2023-03-19T01:53:38.450Z,3.49
2023-03-19T01:57:05.440Z,3.66
2023-03-19T02:00:29.822Z,3.63
2023-03-19T02:03:54.702Z,3.31
2023-03-19T02:07:19.094Z,3.33
2023-03-19T02:10:43.975Z,3.21
2023-03-19T02:14:09.944Z,3.05
2023-03-19T02:17:34.865Z,3.05
2023-03-19T02:21:00.775Z,3.06
2023-03-19T02:24:27.427Z,2.89
2023-03-19T02:27:53.453Z,3.16
2023-03-19T02:31:18.895Z,3.08
2023-03-19T02:34:43.198Z,3.11
2023-03-19T02:38:07.667Z,3.19
2023-03-19T02:41:32.658Z,2.83
2023-03-19T02:44:59.450Z,3.13
2023-03-19T02:48:23.899Z,3.35
2023-03-19T02:51:48.483Z,3.19
2023-03-19T02:55:12.788Z,3.34
2023-03-19T02:58:37.075Z,3.08
2023-03-19T03:02:02.684Z,3.06
2023-03-19T03:05:27.516Z,2.75
2023-03-19T03:08:51.516Z,2.79
2023-03-19T03:12:17.145Z,3.10
2023-03-19T03:15:41.283Z,3.03
2023-03-19T03:19:07.491Z,3.08
2023-03-19T03:22:33.009Z,2.84
2023-03-19T03:25:57.663Z,3.11
2023-03-19T03:29:22.438Z,2.94
2023-03-19T03:32:48.262Z,3.16
2023-03-19T03:36:16.075Z,3.00
2023-03-19T03:39:41.001Z,2.76
2023-03-19T03:43:05.798Z,2.95
2023-03-19T03:46:31.484Z,2.85
2023-03-19T03:49:56.235Z,3.00
2023-03-19T03:53:22.009Z,2.97
2023-03-19T03:56:46.472Z,3.18
2023-03-19T04:00:13.036Z,2.99
2023-03-19T04:03:36.744Z,3.05
2023-03-19T04:07:01.618Z,2.98
2023-03-19T04:10:28.310Z,2.98
2023-03-19T04:13:52.955Z,3.06
2023-03-19T04:17:16.740Z,2.89
2023-03-19T04:20:41.905Z,3.02
2023-03-19T04:24:06.651Z,3.05
2023-03-19T04:27:32.886Z,2.84
2023-03-19T04:31:01.489Z,2.92
2023-03-19T04:34:27.099Z,2.75
2023-03-19T04:37:51.402Z,2.87
2023-03-19T04:41:16.897Z,2.98
2023-03-19T04:44:43.281Z,3.13
2023-03-19T04:48:07.940Z,3.08
2023-03-19T04:51:32.966Z,2.97
2023-03-19T04:54:57.440Z,2.88
2023-03-19T04:58:21.750Z,2.76
2023-03-19T05:01:49.071Z,2.55
2023-03-19T05:05:14.010Z,2.63
2023-03-19T05:08:38.901Z,2.65
2023-03-19T05:12:02.651Z,2.66
2023-03-19T05:15:28.504Z,2.45
2023-03-19T05:18:54.224Z,2.42
2023-03-19T05:22:20.232Z,2.50
2023-03-19T05:25:44.482Z,2.53
2023-03-19T05:29:11.321Z,2.69
2023-03-19T05:32:36.676Z,2.86
2023-03-19T05:36:03.470Z,2.81
2023-03-19T05:39:28.567Z,2.94
2023-03-19T05:42:55.209Z,2.94
2023-03-19T05:46:19.902Z,2.98
2023-03-19T05:49:44.545Z,3.04
2023-03-19T05:53:10.117Z,3.21
2023-03-19T05:56:34.835Z,3.33
2023-03-19T06:00:00.520Z,3.44
2023-03-19T06:03:27.028Z,3.61
2023-03-19T06:06:51.758Z,3.82
2023-03-19T06:10:18.125Z,4.19
2023-03-19T06:13:43.914Z,4.40
2023-03-19T06:17:09.569Z,4.60
2023-03-19T06:20:34.669Z,4.77
2023-03-19T06:23:59.025Z,4.96
2023-03-19T06:27:26.022Z,5.09
2023-03-19T06:30:50.988Z,5.32
2023-03-19T06:34:18.751Z,5.34
2023-03-19T06:37:42.741Z,5.54
2023-03-19T06:41:07.451Z,5.64
2023-03-19T06:44:33.190Z,5.94
2023-03-19T06:47:58.301Z,5.98
2023-03-19T06:51:22.795Z,6.15
2023-03-19T06:54:47.365Z,6.38
2023-03-19T06:58:12.436Z,6.53
2023-03-19T07:01:38.550Z,6.69
2023-03-19T07:05:02.643Z,6.97
2023-03-19T07:08:30.169Z,7.12
2023-03-19T07:11:54.759Z,7.28
2023-03-19T07:15:21.932Z,7.34
2023-03-19T07:18:48.683Z,7.48
2023-03-19T07:22:16.731Z,7.74
2023-03-19T07:25:42.170Z,7.80
2023-03-19T07:29:07.062Z,7.66
2023-03-19T07:32:32.059Z,7.83
2023-03-19T07:35:58.564Z,7.98
2023-03-19T07:39:22.581Z,8.11
2023-03-19T07:42:47.225Z,8.33
2023-03-19T07:46:12.045Z,8.52
2023-03-19T07:49:36.819Z,8.48
2023-03-19T07:53:02.625Z,8.65
2023-03-19T07:56:27.761Z,8.90
2023-03-19T07:59:52.055Z,9.12
2023-03-19T08:03:16.343Z,8.87
2023-03-19T08:06:40.808Z,8.90
2023-03-19T08:10:07.940Z,9.17
2023-03-19T08:13:32.645Z,9.37
2023-03-19T08:16:56.966Z,9.86
2023-03-19T08:20:21.951Z,10.17
2023-03-19T08:23:46.133Z,10.38
2023-03-19T08:27:12.441Z,10.64
2023-03-19T08:30:36.864Z,10.61
2023-03-19T08:34:03.752Z,11.02
2023-03-19T08:37:29.470Z,11.11
2023-03-19T08:40:53.769Z,10.74
2023-03-19T08:44:19.214Z,10.95
2023-03-19T08:47:43.783Z,11.49
2023-03-19T08:51:08.301Z,11.98
2023-03-19T08:54:33.277Z,11.50
2023-03-19T08:57:57.685Z,11.99
2023-03-19T09:01:26.786Z,12.17
2023-03-19T09:04:50.777Z,12.93
2023-03-19T09:08:15.150Z,12.74
2023-03-19T09:11:38.756Z,12.47
2023-03-19T09:15:03.878Z,13.29
2023-03-19T09:18:29.449Z,13.03
2023-03-19T09:21:53.821Z,13.32
2023-03-19T09:25:18.646Z,13.30
2023-03-19T09:28:43.037Z,13.42
2023-03-19T09:32:07.790Z,13.18
2023-03-19T09:35:34.560Z,13.78
2023-03-19T09:38:59.002Z,14.63
2023-03-19T09:42:32.183Z,13.93
2023-03-19T09:45:56.504Z,14.56
2023-03-19T09:49:25.298Z,14.61
2023-03-19T09:52:51.495Z,14.95
2023-03-19T09:56:19.840Z,15.13
2023-03-19T09:59:44.200Z,15.67
2023-03-19T10:03:14.912Z,15.50
2023-03-19T10:06:40.655Z,16.30
2023-03-19T10:10:23.401Z,15.95
2023-03-19T10:13:55.482Z,15.79
2023-03-19T10:17:22.690Z,15.75
2023-03-19T10:20:50.648Z,16.38
2023-03-19T10:24:16.184Z,16.27
2023-03-19T10:27:42.213Z,16.83
2023-03-19T10:31:22.724Z,16.95
2023-03-19T10:34:49.503Z,17.45
2023-03-19T10:38:21.561Z,17.14
2023-03-19T10:41:49.774Z,16.85
2023-03-19T10:45:21.254Z,16.75
2023-03-19T10:48:48.912Z,16.75
2023-03-19T10:52:22.086Z,17.55
2023-03-19T10:55:48.556Z,16.73
2023-03-19T10:59:23.259Z,16.40
2023-03-19T11:02:54.340Z,16.93
2023-03-19T11:06:20.058Z,17.29
2023-03-19T11:09:47.612Z,15.87
2023-03-19T11:13:19.766Z,16.95
2023-03-19T11:16:58.540Z,17.49
2023-03-19T11:20:28.755Z,17.07
2023-03-19T11:23:54.579Z,17.18
2023-03-19T11:27:19.157Z,17.71
2023-03-19T11:30:50.640Z,17.69
2023-03-19T11:34:22.522Z,16.91
2023-03-19T11:37:55.752Z,17.60
2023-03-19T11:41:23.842Z,18.04
2023-03-19T11:44:55.071Z,18.49
2023-03-19T11:48:27.629Z,18.39
2023-03-19T11:51:53.160Z,19.32
2023-03-19T11:55:22.848Z,19.43
2023-03-19T11:58:59.103Z,19.42
2023-03-19T12:02:44.788Z,19.71
2023-03-19T12:06:11.138Z,19.73
2023-03-19T12:09:38.135Z,20.64
2023-03-19T12:13:13.840Z,20.27
2023-03-19T12:16:46.318Z,19.66
2023-03-19T12:20:28.885Z,19.91
2023-03-19T12:24:01.341Z,20.53
2023-03-19T12:27:31.022Z,20.32
2023-03-19T12:31:06.110Z,20.29
2023-03-19T12:34:31.747Z,19.98
2023-03-19T12:37:58.600Z,20.50
2023-03-19T12:41:24.792Z,19.33
2023-03-19T12:44:48.989Z,21.05
2023-03-19T12:48:16.633Z,20.76
2023-03-19T12:51:42.520Z,20.41
2023-03-19T12:55:11.537Z,21.50
2023-03-19T12:58:41.642Z,20.64
2023-03-19T13:02:10.935Z,20.22
2023-03-19T13:05:38.656Z,20.50
2023-03-19T13:09:05.627Z,21.05
2023-03-19T13:12:30.262Z,21.73
2023-03-19T13:15:55.555Z,21.68
2023-03-19T13:19:23.425Z,20.89
2023-03-19T13:22:52.749Z,20.64
2023-03-19T13:26:17.291Z,20.92
2023-03-19T13:29:42.231Z,20.97
2023-03-19T13:33:06.946Z,20.36
2023-03-19T13:36:32.228Z,20.31
2023-03-19T13:39:58.569Z,19.89
2023-03-19T13:43:42.329Z,18.50
2023-03-19T13:47:36.932Z,18.16
2023-03-19T13:51:03.377Z,17.57
2023-03-19T13:54:39.431Z,17.99
2023-03-19T13:58:49.697Z,17.75
2023-03-19T14:02:50.188Z,17.77
2023-03-19T14:06:38.681Z,17.90
2023-03-19T14:10:10.259Z,17.50
2023-03-19T14:13:38.980Z,17.37
2023-03-19T14:17:03.126Z,18.57
2023-03-19T14:20:37.021Z,19.79
2023-03-19T14:24:55.208Z,20.71
2023-03-19T14:28:19.192Z,21.01
2023-03-19T14:31:46.523Z,20.50
2023-03-19T14:35:14.492Z,19.82
2023-03-19T14:38:41.641Z,19.66
2023-03-19T14:42:08.501Z,19.93
2023-03-19T14:45:45.950Z,20.05
2023-03-19T14:49:38.009Z,20.21
2023-03-19T14:53:04.084Z,20.08
2023-03-19T14:56:33.951Z,19.76
2023-03-19T14:59:59.814Z,19.72
2023-03-19T15:03:26.445Z,20.29
2023-03-19T15:06:54.765Z,19.27
2023-03-19T15:10:21.629Z,19.47
2023-03-19T15:14:08.695Z,19.70
2023-03-19T15:17:33.522Z,19.76
2023-03-19T15:20:58.053Z,20.08
2023-03-19T15:24:27.817Z,19.20
2023-03-19T15:28:08.288Z,19.25
2023-03-19T15:32:03.836Z,19.75
2023-03-19T15:35:32.087Z,19.01
2023-03-19T15:39:04.689Z,18.75
2023-03-19T15:42:32.199Z,18.35
2023-03-19T15:45:58.924Z,17.75
2023-03-19T15:49:26.506Z,17.49
2023-03-19T15:52:53.357Z,17.96
2023-03-19T15:56:19.590Z,18.61
2023-03-19T15:59:46.556Z,18.79
2023-03-19T16:03:15.236Z,18.75
2023-03-19T16:06:41.177Z,18.10
2023-03-19T16:10:38.450Z,18.02
2023-03-19T16:14:05.142Z,17.78
2023-03-19T16:17:37.714Z,17.45
2023-03-19T16:21:12.365Z,16.93
2023-03-19T16:24:40.048Z,16.63
2023-03-19T16:28:09.058Z,16.19
2023-03-19T16:31:36.727Z,15.96
2023-03-19T16:35:07.687Z,15.67
2023-03-19T16:38:37.899Z,15.47
2023-03-19T16:42:19.283Z,15.13
2023-03-19T16:45:44.463Z,15.02
2023-03-19T16:49:13.915Z,14.82
2023-03-19T16:52:41.877Z,14.44
2023-03-19T16:56:08.307Z,14.09
2023-03-19T16:59:41.248Z,14.03
2023-03-19T17:03:13.313Z,13.89
2023-03-19T17:06:39.335Z,13.84
2023-03-19T17:10:08.302Z,13.70
2023-03-19T17:13:34.606Z,13.72
2023-03-19T17:17:03.252Z,13.77
2023-03-19T17:20:33.483Z,13.63
2023-03-19T17:24:04.356Z,13.92
2023-03-19T17:27:32.958Z,14.06
2023-03-19T17:31:02.157Z,13.94
2023-03-19T17:34:28.030Z,13.99
2023-03-19T17:37:58.411Z,13.92
2023-03-19T17:41:26.452Z,13.65
2023-03-19T17:45:01.975Z,13.76
2023-03-19T17:48:29.214Z,13.93
2023-03-19T17:51:58.477Z,13.73
2023-03-19T17:55:25.282Z,13.75
2023-03-19T17:58:52.684Z,13.58
2023-03-19T18:02:27.350Z,13.74
2023-03-19T18:06:02.683Z,13.40
2023-03-19T18:09:30.013Z,13.63
2023-03-19T18:12:57.998Z,13.72
2023-03-19T18:16:26.200Z,13.58
2023-03-19T18:19:55.429Z,13.46
2023-03-19T18:23:23.106Z,13.28
2023-03-19T18:26:50.896Z,13.31
2023-03-19T18:30:19.939Z,13.50
2023-03-19T18:33:49.592Z,13.35
2023-03-19T18:37:17.837Z,13.54
2023-03-19T18:40:45.084Z,13.32
2023-03-19T18:44:12.858Z,13.55
2023-03-19T18:47:38.595Z,13.22
2023-03-19T18:51:04.716Z,13.35
2023-03-19T18:54:35.846Z,13.22
2023-03-19T18:58:02.347Z,13.29
2023-03-19T19:01:30.503Z,13.19
2023-03-19T19:04:56.725Z,13.36
2023-03-19T19:08:21.832Z,13.02
2023-03-19T19:11:55.031Z,13.40
2023-03-19T19:15:27.814Z,13.26
2023-03-19T19:18:53.955Z,12.83
2023-03-19T19:22:20.393Z,13.05
2023-03-19T19:25:45.957Z,12.96
2023-03-19T19:29:33.657Z,12.98
2023-03-19T19:32:59.613Z,12.83
2023-03-19T19:36:28.987Z,12.80
2023-03-19T19:39:55.137Z,12.55
2023-03-19T19:43:22.145Z,12.48
2023-03-19T19:46:53.716Z,12.43
2023-03-19T19:50:21.362Z,12.43
2023-03-19T19:53:49.035Z,12.35
2023-03-19T19:57:22.330Z,12.45
2023-03-19T20:01:02.324Z,12.50
2023-03-19T20:04:34.603Z,12.63
2023-03-19T20:08:02.334Z,12.76
2023-03-19T20:11:29.639Z,12.34
2023-03-19T20:14:56.336Z,12.11
2023-03-19T20:18:23.722Z,12.23
2023-03-19T20:21:52.046Z,12.49
2023-03-19T20:25:19.182Z,12.23
2023-03-19T20:28:46.960Z,12.31
2023-03-19T20:32:27.420Z,12.43
2023-03-19T20:35:56.429Z,12.30
2023-03-19T20:39:29.280Z,12.50
2023-03-19T20:42:57.201Z,12.53
2023-03-19T20:46:24.146Z,12.46
2023-03-19T20:49:51.043Z,12.11
2023-03-19T20:53:24.273Z,12.25
2023-03-19T20:56:53.889Z,11.95
2023-03-19T21:00:28.523Z,12.05
2023-03-19T21:03:55.381Z,12.00
2023-03-19T21:07:32.101Z,11.82
2023-03-19T21:11:01.434Z,11.62
2023-03-19T21:14:31.185Z,11.74
2023-03-19T21:17:56.807Z,11.48
2023-03-19T21:21:27.750Z,11.31
2023-03-19T21:24:53.701Z,11.23
2023-03-19T21:28:25.248Z,11.12
2023-03-19T21:31:55.066Z,11.34
2023-03-19T21:35:23.860Z,11.05
2023-03-19T21:38:49.173Z,11.28
2023-03-19T21:42:20.522Z,10.65
2023-03-19T21:45:46.158Z,10.40
2023-03-19T21:49:13.614Z,10.70
2023-03-19T21:52:55.884Z,10.38
2023-03-19T21:56:23.654Z,10.66
2023-03-19T21:59:47.600Z,10.63
2023-03-19T22:03:15.839Z,10.24
2023-03-19T22:06:43.389Z,9.99
2023-03-19T22:10:07.882Z,9.94
2023-03-19T22:17:12.532Z,9.97
2023-03-19T22:20:37.112Z,10.06
2023-03-19T22:24:03.403Z,9.98
2023-03-19T22:27:39.756Z,10.03
2023-03-19T22:31:04.764Z,10.03
2023-03-19T22:34:29.385Z,9.77
2023-03-19T22:37:53.285Z,9.90
2023-03-19T22:41:20.252Z,10.04
2023-03-19T22:44:43.790Z,10.18
2023-03-19T22:48:08.217Z,10.00
2023-03-19T22:51:32.582Z,10.28
2023-03-19T22:54:56.965Z,10.42
2023-03-19T22:58:22.395Z,10.23
2023-03-19T23:01:47.115Z,10.31
2023-03-19T23:05:32.086Z,10.04
2023-03-19T23:08:56.548Z,10.01
2023-03-19T23:12:20.838Z,10.13
2023-03-19T23:15:46.461Z,10.44
2023-03-19T23:19:22.319Z,9.84
2023-03-19T23:22:47.224Z,10.00
2023-03-19T23:26:15.747Z,9.72
2023-03-19T23:29:41.340Z,9.66
2023-03-19T23:33:07.319Z,9.50
2023-03-19T23:36:31.990Z,9.80
2023-03-19T23:39:56.773Z,9.91
2023-03-19T23:43:22.449Z,10.08
2023-03-19T23:46:46.577Z,10.19
2023-03-19T23:50:14.060Z,10.10
2023-03-19T23:53:38.315Z,9.66
2023-03-19T23:57:04.546Z,10.10
